LFBO/TLS METAR and TAF weather

Enter ICAO airport designator
Station Type Date Time Source
LFBO METAR 2022/11/26 08:30 UTC NOAA

LFBO 260830Z AUTO 16003KT 140V210 9999 OVC005 05/05 Q1032 TEMPO 3000 BR VV///


Station Type Date Time Source
LFBO Decoded METAR 2022/11/26 08:30 UTC NOAA

Toulouse / Blagnac, France (LFBO) 43-38N 001-22E 153M
Nov 26, 2022 - 03:30 AM EST / 2022.11.26 0830 UTC
Wind: from the SSE (160 degrees) at 3 MPH (3 KT) (direction variable):0
Visibility: greater than 7 mile(s):0
Sky conditions: overcast
Temperature: 41 F (5 C)
Dew Point: 41 F (5 C)
Relative Humidity: 100%
Pressure (altimeter): 30.47 in. Hg (1032 hPa)
ob: LFBO 260830Z AUTO 16003KT 140V210 9999 OVC005 05/05 Q1032 TEMPO 3000 BR VV///
cycle: 8

Station Type Date Time Source
LFBO TAF 2022/11/26 06:52 UTC NOAA

TAF LFBO 260500Z 2606/2712 VRB03KT CAVOK
TEMPO 2606/2613 3000 BR OVC004 PROB40
TEMPO 2606/2610 0400 FG VV///
TEMPO 2618/2701 4000 BR PROB30
TEMPO 2619/2623 0200 FG VV///
BECMG 2701/2703 14008KT
BECMG 2709/2711 14014KT

Example: see airport list